Terminal Aerodrome Forecast
Issued by NWS Sioux Falls, SD

Home | Current Version | Previous Version | Text Only | Print | Product List | Glossary Off
Versions: 1 2 3 4 5 6 7 8 9 10 11 12

000
FTUS43 KFSD 260632 AAA
TAFHON
TAF AMD
KHON 260632Z 2607/2706 32007KT P6SM SKC
     FM261800 34010KT P6SM SCT025
     FM270000 27005KT P6SM SKC=

USA.gov is the U.S. government's official web portal to all federal, state and local government web resources and services.